CCA826 WSSS-ZSPD
Flight info
| Callsign | CCA826 |
|---|---|
| Flight time | 5h 0m |
| Altitude | 35000 |
| Route | VMR6A VMR M771 RAXIM/N0487F360 M771 DUDIS/K0898F360 M771 DOSUT/N0479F360 M771 DULOP/N0481F370 M771 DUMOL/N0482F380 J103 BEKOL/K0891S1160 A461 SHL/K0887S1130 G471 EGEDA/K0887S1160 G471 PLT/K0883S1130 A599 ELNEX G204 SHZ W58 BK BK83A |
| Aircraft | B77W/H-SDE1E2E3FGHIJ2J3J4J5M1RWXY/LB1D1 |
Departure
| Time | 2026-05-05 15:16 |
|---|---|
| Airport | Singapore Changi Airport (WSSS) |
Arrival
| Time | 2026-05-05 20:16 |
|---|---|
| Airport | Shanghai Pudong International Airport (ZSPD) |
| Time | Latitude | Longitude | Altitude | Speed | Heading |
|---|---|---|---|---|---|
| 2026-05-05 14:03 | 1.36239 | 103.99330 | 30 ft | 0 kts | 292° |
| 2026-05-05 14:48 | 1.36233 | 103.99344 | 29 ft | 4 kts | 292° |
| 2026-05-05 14:49 | 1.36224 | 103.99365 | 28 ft | 1 kts | 293° |
| 2026-05-05 14:49 | 1.36218 | 103.99387 | 29 ft | 4 kts | 263° |
| 2026-05-05 14:49 | 1.36228 | 103.99408 | 29 ft | 4 kts | 212° |
| 2026-05-05 14:49 | 1.36237 | 103.99413 | 29 ft | 0 kts | 202° |
| 2026-05-05 14:55 | 1.36235 | 103.99412 | 29 ft | 1 kts | 202° |
| 2026-05-05 14:55 | 1.36222 | 103.99407 | 29 ft | 3 kts | 202° |
| 2026-05-05 14:55 | 1.36201 | 103.99398 | 29 ft | 3 kts | 202° |
| 2026-05-05 14:55 | 1.36179 | 103.99389 | 29 ft | 4 kts | 203° |
| 2026-05-05 14:56 | 1.36157 | 103.99380 | 29 ft | 0 kts | 202° |
| 2026-05-05 14:56 | 1.36154 | 103.99378 | 29 ft | 1 kts | 202° |
| 2026-05-05 14:56 | 1.36133 | 103.99370 | 29 ft | 4 kts | 202° |
| 2026-05-05 14:56 | 1.36106 | 103.99358 | 29 ft | 4 kts | 202° |
| 2026-05-05 14:57 | 1.36076 | 103.99346 | 29 ft | 5 kts | 202° |
| 2026-05-05 14:57 | 1.36030 | 103.99338 | 30 ft | 9 kts | 170° |
| 2026-05-05 14:57 | 1.35987 | 103.99397 | 30 ft | 14 kts | 112° |
| 2026-05-05 14:57 | 1.35943 | 103.99500 | 30 ft | 16 kts | 112° |
| 2026-05-05 14:58 | 1.35868 | 103.99554 | 30 ft | 15 kts | 191° |
| 2026-05-05 14:58 | 1.35772 | 103.99518 | 30 ft | 15 kts | 202° |
| 2026-05-05 14:58 | 1.35675 | 103.99478 | 31 ft | 15 kts | 202° |
| 2026-05-05 14:58 | 1.35578 | 103.99438 | 31 ft | 15 kts | 202° |
| 2026-05-05 14:59 | 1.35481 | 103.99398 | 31 ft | 15 kts | 202° |
| 2026-05-05 14:59 | 1.35385 | 103.99357 | 31 ft | 15 kts | 203° |
| 2026-05-05 14:59 | 1.35288 | 103.99316 | 31 ft | 15 kts | 203° |
| 2026-05-05 14:59 | 1.35186 | 103.99273 | 30 ft | 18 kts | 202° |
| 2026-05-05 15:00 | 1.35058 | 103.99220 | 30 ft | 21 kts | 202° |
| 2026-05-05 15:00 | 1.34976 | 103.99186 | 30 ft | 17 kts | 202° |
| 2026-05-05 15:00 | 1.34845 | 103.99131 | 31 ft | 15 kts | 203° |
| 2026-05-05 15:00 | 1.34750 | 103.99091 | 31 ft | 15 kts | 202° |
| 2026-05-05 15:01 | 1.34655 | 103.99051 | 31 ft | 15 kts | 204° |
| 2026-05-05 15:01 | 1.34560 | 103.99010 | 32 ft | 15 kts | 202° |
| 2026-05-05 15:01 | 1.34466 | 103.98972 | 31 ft | 15 kts | 202° |
| 2026-05-05 15:01 | 1.34370 | 103.98932 | 31 ft | 15 kts | 203° |
| 2026-05-05 15:02 | 1.34274 | 103.98891 | 31 ft | 15 kts | 203° |
| 2026-05-05 15:02 | 1.34176 | 103.98851 | 31 ft | 15 kts | 202° |
| 2026-05-05 15:02 | 1.34078 | 103.98810 | 31 ft | 15 kts | 202° |
| 2026-05-05 15:02 | 1.33981 | 103.98769 | 31 ft | 15 kts | 202° |
| 2026-05-05 15:03 | 1.33884 | 103.98728 | 31 ft | 15 kts | 203° |
| 2026-05-05 15:03 | 1.33786 | 103.98686 | 31 ft | 15 kts | 203° |
| 2026-05-05 15:03 | 1.33688 | 103.98645 | 30 ft | 15 kts | 202° |
| 2026-05-05 15:03 | 1.33590 | 103.98606 | 30 ft | 15 kts | 202° |
| 2026-05-05 15:04 | 1.33493 | 103.98565 | 30 ft | 15 kts | 202° |
| 2026-05-05 15:04 | 1.33396 | 103.98525 | 30 ft | 15 kts | 202° |
| 2026-05-05 15:04 | 1.33299 | 103.98483 | 30 ft | 15 kts | 203° |
| 2026-05-05 15:04 | 1.33202 | 103.98442 | 31 ft | 15 kts | 203° |
| 2026-05-05 15:05 | 1.33073 | 103.98388 | 31 ft | 0 kts | 202° |
| 2026-05-05 15:05 | 1.33064 | 103.98384 | 31 ft | 6 kts | 202° |
| 2026-05-05 15:05 | 1.33010 | 103.98363 | 31 ft | 8 kts | 196° |
| 2026-05-05 15:06 | 1.32988 | 103.98361 | 31 ft | 0 kts | 176° |
| 2026-05-05 15:06 | 1.32968 | 103.98368 | 31 ft | 3 kts | 151° |
| 2026-05-05 15:06 | 1.32952 | 103.98383 | 31 ft | 3 kts | 131° |
| 2026-05-05 15:06 | 1.32949 | 103.98389 | 32 ft | 0 kts | 117° |
| 2026-05-05 15:07 | 1.32948 | 103.98390 | 32 ft | 0 kts | 117° |
| 2026-05-05 15:12 | 1.32944 | 103.98399 | 32 ft | 5 kts | 117° |
| 2026-05-05 15:13 | 1.32926 | 103.98435 | 33 ft | 6 kts | 115° |
| 2026-05-05 15:13 | 1.32916 | 103.98471 | 33 ft | 5 kts | 99° |
| 2026-05-05 15:13 | 1.32922 | 103.98506 | 33 ft | 5 kts | 57° |
| 2026-05-05 15:13 | 1.32952 | 103.98530 | 34 ft | 6 kts | 32° |
| 2026-05-05 15:14 | 1.32973 | 103.98541 | 34 ft | 0 kts | 22° |
| 2026-05-05 15:14 | 1.32976 | 103.98542 | 34 ft | 0 kts | 20° |
| 2026-05-05 15:14 | 1.32979 | 103.98543 | 34 ft | 0 kts | 18° |
| 2026-05-05 15:14 | 1.32981 | 103.98544 | 34 ft | 2 kts | 22° |
| 2026-05-05 15:15 | 1.33021 | 103.98560 | 34 ft | 30 kts | 22° |
| 2026-05-05 15:15 | 1.33491 | 103.98759 | 31 ft | 114 kts | 23° |
| 2026-05-05 15:15 | 1.34442 | 103.99159 | 37 ft | 179 kts | 23° |
| 2026-05-05 15:15 | 1.35682 | 103.99698 | 398 ft | 199 kts | 23° |
| 2026-05-05 15:16 | 1.36972 | 104.00213 | 1126 ft | 200 kts | 22° |
| 2026-05-05 15:16 | 1.38252 | 104.00764 | 1947 ft | 201 kts | 24° |
| 2026-05-05 15:16 | 1.39589 | 104.01340 | 2287 ft | 226 kts | 23° |
| 2026-05-05 15:16 | 1.41118 | 104.01987 | 2619 ft | 248 kts | 23° |
| 2026-05-05 15:17 | 1.42742 | 104.02666 | 3350 ft | 256 kts | 23° |
| 2026-05-05 15:17 | 1.44390 | 104.03362 | 4168 ft | 259 kts | 23° |
| 2026-05-05 15:17 | 1.46063 | 104.04066 | 5004 ft | 263 kts | 22° |
| 2026-05-05 15:17 | 1.47772 | 104.04760 | 5795 ft | 265 kts | 18° |
| 2026-05-05 15:18 | 1.49607 | 104.04931 | 6440 ft | 270 kts | 351° |
| 2026-05-05 15:18 | 1.51396 | 104.04389 | 7167 ft | 270 kts | 335° |
| 2026-05-05 15:18 | 1.53097 | 104.03517 | 7806 ft | 279 kts | 330° |
| 2026-05-05 15:18 | 1.54818 | 104.02548 | 8421 ft | 289 kts | 330° |
| 2026-05-05 15:19 | 1.56586 | 104.01549 | 9150 ft | 295 kts | 330° |
| 2026-05-05 15:19 | 1.58366 | 104.00555 | 9916 ft | 299 kts | 330° |
| 2026-05-05 15:19 | 1.60207 | 103.99539 | 10536 ft | 309 kts | 331° |
| 2026-05-05 15:19 | 1.62174 | 103.98461 | 10744 ft | 336 kts | 331° |
| 2026-05-05 15:20 | 1.64311 | 103.97298 | 10944 ft | 363 kts | 332° |
| 2026-05-05 15:20 | 1.66579 | 103.96070 | 11414 ft | 378 kts | 332° |
| 2026-05-05 15:20 | 1.68924 | 103.94805 | 12136 ft | 387 kts | 332° |
| 2026-05-05 15:20 | 1.71311 | 103.93517 | 13036 ft | 391 kts | 332° |
| 2026-05-05 15:21 | 1.73719 | 103.92217 | 13926 ft | 396 kts | 332° |
| 2026-05-05 15:21 | 1.76230 | 103.91114 | 14537 ft | 398 kts | 347° |
| 2026-05-05 15:21 | 1.78984 | 103.90815 | 15111 ft | 401 kts | 359° |
| 2026-05-05 15:21 | 1.81791 | 103.90706 | 15761 ft | 408 kts | 359° |
| 2026-05-05 15:22 | 1.84602 | 103.90574 | 16586 ft | 410 kts | 358° |
| 2026-05-05 15:22 | 1.87459 | 103.90423 | 17395 ft | 413 kts | 358° |
| 2026-05-05 15:22 | 1.90346 | 103.90258 | 18138 ft | 418 kts | 358° |
| 2026-05-05 15:22 | 1.93268 | 103.90081 | 18741 ft | 423 kts | 358° |
| 2026-05-05 15:23 | 1.96223 | 103.89897 | 19368 ft | 427 kts | 358° |
| 2026-05-05 15:23 | 1.99205 | 103.89709 | 20019 ft | 431 kts | 358° |
| 2026-05-05 15:23 | 2.02203 | 103.89518 | 20655 ft | 434 kts | 358° |
| 2026-05-05 15:23 | 2.05231 | 103.89325 | 21266 ft | 438 kts | 358° |
| 2026-05-05 15:24 | 2.08289 | 103.89131 | 21883 ft | 442 kts | 358° |
| 2026-05-05 15:24 | 2.11365 | 103.88936 | 22501 ft | 445 kts | 358° |
| 2026-05-05 15:24 | 2.14426 | 103.88742 | 23102 ft | 448 kts | 358° |
| 2026-05-05 15:24 | 2.17552 | 103.88545 | 23630 ft | 452 kts | 358° |
| 2026-05-05 15:25 | 2.20703 | 103.88346 | 24087 ft | 456 kts | 358° |
| 2026-05-05 15:25 | 2.23883 | 103.88145 | 24556 ft | 460 kts | 358° |
| 2026-05-05 15:25 | 2.27084 | 103.87941 | 25015 ft | 463 kts | 358° |
| 2026-05-05 15:25 | 2.30308 | 103.87736 | 25463 ft | 466 kts | 358° |
| 2026-05-05 15:26 | 2.33564 | 103.87532 | 25894 ft | 470 kts | 358° |
| 2026-05-05 15:26 | 2.36830 | 103.87397 | 26291 ft | 469 kts | 4° |
| 2026-05-05 15:26 | 2.40038 | 103.88004 | 26599 ft | 472 kts | 22° |
| 2026-05-05 15:26 | 2.42904 | 103.89547 | 26999 ft | 467 kts | 36° |
| 2026-05-05 15:27 | 2.45613 | 103.91373 | 27317 ft | 473 kts | 34° |
| 2026-05-05 15:27 | 2.48352 | 103.93141 | 27705 ft | 477 kts | 33° |
| 2026-05-05 15:27 | 2.51166 | 103.94910 | 28143 ft | 480 kts | 33° |
| 2026-05-05 15:27 | 2.54008 | 103.96676 | 28602 ft | 482 kts | 33° |
| 2026-05-05 15:28 | 2.56864 | 103.98445 | 29047 ft | 484 kts | 33° |
| 2026-05-05 15:28 | 2.59737 | 104.00224 | 29443 ft | 487 kts | 33° |
| 2026-05-05 15:28 | 2.62629 | 104.02018 | 29787 ft | 492 kts | 33° |
| 2026-05-05 15:28 | 2.65548 | 104.03831 | 30108 ft | 495 kts | 33° |
| 2026-05-05 15:29 | 2.68480 | 104.05652 | 30431 ft | 497 kts | 33° |
| 2026-05-05 15:29 | 2.71421 | 104.07482 | 30783 ft | 498 kts | 33° |
| 2026-05-05 15:29 | 2.74367 | 104.09317 | 31158 ft | 498 kts | 33° |
| 2026-05-05 15:29 | 2.77266 | 104.11119 | 31578 ft | 496 kts | 33° |
| 2026-05-05 15:30 | 2.80198 | 104.12942 | 31952 ft | 496 kts | 33° |
| 2026-05-05 15:30 | 2.83125 | 104.14765 | 32355 ft | 496 kts | 33° |
| 2026-05-05 15:30 | 2.86050 | 104.16587 | 32791 ft | 495 kts | 33° |
| 2026-05-05 15:30 | 2.88968 | 104.18405 | 33242 ft | 493 kts | 33° |
| 2026-05-05 15:31 | 2.91881 | 104.20218 | 33702 ft | 492 kts | 33° |
| 2026-05-05 15:31 | 2.94784 | 104.22026 | 34088 ft | 491 kts | 33° |
| 2026-05-05 15:31 | 2.97678 | 104.23828 | 34512 ft | 489 kts | 33° |
| 2026-05-05 15:31 | 3.00564 | 104.25625 | 34868 ft | 488 kts | 33° |
| 2026-05-05 15:32 | 3.03420 | 104.27403 | 34897 ft | 492 kts | 33° |
| 2026-05-05 15:32 | 3.09194 | 104.31021 | 34896 ft | 487 kts | 33° |
| 2026-05-05 15:33 | 3.14901 | 104.34628 | 34900 ft | 485 kts | 33° |
| 2026-05-05 15:33 | 3.20640 | 104.38186 | 34906 ft | 485 kts | 33° |
| 2026-05-05 15:34 | 3.26391 | 104.41737 | 34905 ft | 486 kts | 33° |
| 2026-05-05 15:34 | 3.32140 | 104.45301 | 34903 ft | 487 kts | 33° |
| 2026-05-05 15:35 | 3.37858 | 104.48849 | 34909 ft | 487 kts | 33° |
| 2026-05-05 15:35 | 3.43630 | 104.52432 | 34903 ft | 488 kts | 33° |
| 2026-05-05 15:36 | 3.49406 | 104.56016 | 34903 ft | 489 kts | 33° |
| 2026-05-05 15:36 | 3.55184 | 104.59609 | 34902 ft | 489 kts | 33° |
| 2026-05-05 15:37 | 3.60960 | 104.63197 | 34904 ft | 489 kts | 33° |
| 2026-05-05 15:37 | 3.66735 | 104.66792 | 34901 ft | 489 kts | 33° |
| 2026-05-05 15:38 | 3.72506 | 104.70378 | 34900 ft | 488 kts | 33° |
| 2026-05-05 15:38 | 3.78279 | 104.73970 | 34905 ft | 488 kts | 33° |
| 2026-05-05 15:39 | 3.84013 | 104.77539 | 34905 ft | 489 kts | 33° |
| 2026-05-05 15:39 | 3.89789 | 104.81135 | 34905 ft | 489 kts | 33° |
| 2026-05-05 15:40 | 3.95567 | 104.84733 | 34902 ft | 488 kts | 33° |
| 2026-05-05 15:40 | 4.01334 | 104.88327 | 34900 ft | 488 kts | 33° |
| 2026-05-05 15:41 | 4.07101 | 104.91922 | 34905 ft | 488 kts | 33° |
| 2026-05-05 15:41 | 4.12877 | 104.95521 | 34901 ft | 489 kts | 33° |
| 2026-05-05 15:42 | 4.18612 | 104.99096 | 34907 ft | 489 kts | 33° |
| 2026-05-05 15:42 | 4.24388 | 105.02693 | 34903 ft | 489 kts | 33° |
| 2026-05-05 15:43 | 4.30163 | 105.06286 | 34904 ft | 487 kts | 33° |
| 2026-05-05 15:43 | 4.35930 | 105.09871 | 34905 ft | 488 kts | 33° |
| 2026-05-05 15:44 | 4.40721 | 105.12850 | 34903 ft | 488 kts | 33° |
| 2026-05-05 15:44 | 4.46499 | 105.16446 | 34901 ft | 489 kts | 33° |
| 2026-05-05 15:45 | 4.52282 | 105.20046 | 34903 ft | 490 kts | 33° |
| 2026-05-05 15:45 | 4.58086 | 105.23648 | 34902 ft | 491 kts | 33° |
| 2026-05-05 15:46 | 4.63886 | 105.27268 | 34902 ft | 491 kts | 33° |
| 2026-05-05 15:46 | 4.69650 | 105.30865 | 34901 ft | 491 kts | 33° |
| 2026-05-05 15:47 | 4.75450 | 105.34478 | 34904 ft | 491 kts | 33° |
| 2026-05-05 15:47 | 4.81246 | 105.38089 | 34899 ft | 490 kts | 33° |
| 2026-05-05 15:48 | 4.86985 | 105.41771 | 34902 ft | 490 kts | 34° |
| 2026-05-05 15:48 | 4.92689 | 105.45507 | 34901 ft | 490 kts | 34° |
| 2026-05-05 15:49 | 4.98399 | 105.49240 | 34901 ft | 491 kts | 34° |
| 2026-05-05 15:49 | 5.04079 | 105.52944 | 34901 ft | 490 kts | 34° |
| 2026-05-05 15:50 | 5.09803 | 105.56671 | 34904 ft | 490 kts | 34° |
| 2026-05-05 15:50 | 5.15522 | 105.60392 | 34899 ft | 490 kts | 34° |
| 2026-05-05 15:51 | 5.21236 | 105.64113 | 34897 ft | 489 kts | 34° |
| 2026-05-05 15:51 | 5.26903 | 105.67809 | 34898 ft | 489 kts | 33° |
| 2026-05-05 15:52 | 5.32611 | 105.71534 | 34898 ft | 489 kts | 33° |
| 2026-05-05 15:52 | 5.38325 | 105.75250 | 34897 ft | 490 kts | 33° |
| 2026-05-05 15:53 | 5.44046 | 105.78977 | 34899 ft | 490 kts | 33° |
| 2026-05-05 15:53 | 5.49769 | 105.82708 | 34898 ft | 491 kts | 33° |
| 2026-05-05 15:54 | 5.55448 | 105.86412 | 34900 ft | 490 kts | 33° |
| 2026-05-05 15:54 | 5.61161 | 105.90136 | 34902 ft | 489 kts | 33° |
| 2026-05-05 15:55 | 5.66864 | 105.93860 | 34896 ft | 489 kts | 33° |
| 2026-05-05 15:55 | 5.72566 | 105.97581 | 34899 ft | 489 kts | 33° |
| 2026-05-05 15:56 | 5.78226 | 106.01278 | 34892 ft | 488 kts | 33° |
| 2026-05-05 15:56 | 5.83922 | 106.04995 | 34898 ft | 489 kts | 33° |
| 2026-05-05 15:57 | 5.89624 | 106.08718 | 34905 ft | 489 kts | 33° |
| 2026-05-05 15:57 | 5.95325 | 106.12450 | 34897 ft | 489 kts | 33° |
| 2026-05-05 15:58 | 6.01041 | 106.16174 | 34899 ft | 490 kts | 33° |
| 2026-05-05 15:58 | 6.06713 | 106.19881 | 34898 ft | 490 kts | 33° |
| 2026-05-05 15:59 | 6.12423 | 106.23592 | 34894 ft | 488 kts | 32° |
| 2026-05-05 15:59 | 6.18120 | 106.27293 | 34897 ft | 488 kts | 33° |
| 2026-05-05 16:00 | 6.23798 | 106.31042 | 34897 ft | 488 kts | 33° |
| 2026-05-05 16:00 | 6.29451 | 106.34754 | 34903 ft | 489 kts | 33° |
| 2026-05-05 16:01 | 6.35159 | 106.38491 | 34900 ft | 490 kts | 33° |
| 2026-05-05 16:01 | 6.40873 | 106.42232 | 34894 ft | 490 kts | 33° |
| 2026-05-05 16:02 | 6.46580 | 106.45970 | 34898 ft | 489 kts | 33° |
| 2026-05-05 16:02 | 6.52252 | 106.49683 | 34902 ft | 489 kts | 33° |
| 2026-05-05 16:03 | 6.57960 | 106.53419 | 34899 ft | 489 kts | 33° |
| 2026-05-05 16:03 | 6.63659 | 106.57154 | 34897 ft | 488 kts | 33° |
| 2026-05-05 16:04 | 6.69346 | 106.60887 | 34897 ft | 487 kts | 33° |
| 2026-05-05 16:04 | 6.75032 | 106.64612 | 34900 ft | 488 kts | 33° |
| 2026-05-05 16:05 | 6.80725 | 106.68341 | 34895 ft | 488 kts | 33° |
| 2026-05-05 16:05 | 6.86370 | 106.72049 | 35235 ft | 488 kts | 33° |
| 2026-05-05 16:05 | 6.89198 | 106.73907 | 35863 ft | 480 kts | 34° |
| 2026-05-05 16:06 | 6.91981 | 106.75734 | 36335 ft | 477 kts | 33° |
| 2026-05-05 16:06 | 6.94750 | 106.77550 | 36715 ft | 475 kts | 34° |
| 2026-05-05 16:06 | 6.97508 | 106.79361 | 37129 ft | 472 kts | 34° |
| 2026-05-05 16:06 | 7.00259 | 106.81167 | 37470 ft | 472 kts | 34° |
| 2026-05-05 16:07 | 7.03003 | 106.82974 | 37786 ft | 471 kts | 34° |
| 2026-05-05 16:07 | 7.08465 | 106.86562 | 37910 ft | 472 kts | 34° |
| 2026-05-05 16:08 | 7.13924 | 106.90159 | 37901 ft | 467 kts | 34° |
| 2026-05-05 16:08 | 7.19361 | 106.93731 | 37901 ft | 468 kts | 34° |
| 2026-05-05 16:09 | 7.24806 | 106.97315 | 37894 ft | 467 kts | 34° |
| 2026-05-05 16:09 | 7.30193 | 107.00868 | 37898 ft | 465 kts | 33° |
| 2026-05-05 16:10 | 7.35602 | 107.04439 | 37898 ft | 464 kts | 33° |
| 2026-05-05 16:10 | 7.41012 | 107.08003 | 37897 ft | 465 kts | 34° |
| 2026-05-05 16:11 | 7.46436 | 107.11578 | 37900 ft | 466 kts | 34° |
| 2026-05-05 16:12 | 7.57264 | 107.18732 | 37887 ft | 467 kts | 33° |
| 2026-05-05 16:13 | 7.70847 | 107.27692 | 37898 ft | 469 kts | 33° |
| 2026-05-05 16:13 | 7.76322 | 107.31281 | 37902 ft | 469 kts | 34° |
| 2026-05-05 16:14 | 7.87236 | 107.38476 | 37899 ft | 470 kts | 34° |
| 2026-05-05 16:15 | 7.98142 | 107.45729 | 37898 ft | 470 kts | 34° |
| 2026-05-05 16:16 | 8.09045 | 107.52946 | 37891 ft | 470 kts | 34° |
| 2026-05-05 16:17 | 8.17242 | 107.58372 | 37894 ft | 469 kts | 34° |
| 2026-05-05 16:18 | 8.25385 | 107.63765 | 37896 ft | 468 kts | 34° |
| 2026-05-05 16:19 | 8.33530 | 107.69166 | 37888 ft | 467 kts | 34° |
| 2026-05-05 16:19 | 8.41686 | 107.74574 | 37897 ft | 468 kts | 34° |
| 2026-05-05 16:20 | 8.52565 | 107.81796 | 37889 ft | 470 kts | 34° |
| 2026-05-05 16:22 | 8.66260 | 107.90885 | 37894 ft | 472 kts | 34° |
| 2026-05-05 16:23 | 8.77175 | 107.98137 | 37890 ft | 471 kts | 34° |
| 2026-05-05 16:23 | 8.85373 | 108.03588 | 37889 ft | 470 kts | 34° |
| 2026-05-05 16:24 | 8.90829 | 108.07218 | 37889 ft | 469 kts | 34° |
| 2026-05-05 16:25 | 8.99009 | 108.12661 | 37893 ft | 470 kts | 35° |
| 2026-05-05 16:25 | 9.07187 | 108.18109 | 37903 ft | 473 kts | 34° |
| 2026-05-05 16:26 | 9.18259 | 108.25483 | 37900 ft | 478 kts | 34° |
| 2026-05-05 16:27 | 9.23827 | 108.29199 | 37894 ft | 479 kts | 34° |
| 2026-05-05 16:27 | 9.29369 | 108.32872 | 37875 ft | 479 kts | 34° |
| 2026-05-05 16:28 | 9.34918 | 108.36589 | 37886 ft | 478 kts | 33° |
| 2026-05-05 16:28 | 9.40447 | 108.40280 | 37876 ft | 473 kts | 34° |
| 2026-05-05 16:29 | 9.45928 | 108.44008 | 37874 ft | 474 kts | 34° |
| 2026-05-05 16:29 | 9.51437 | 108.47681 | 37891 ft | 474 kts | 33° |
| 2026-05-05 16:30 | 9.56926 | 108.51295 | 37894 ft | 473 kts | 33° |
| 2026-05-05 16:30 | 9.62427 | 108.54949 | 37894 ft | 473 kts | 34° |
| 2026-05-05 16:31 | 9.67924 | 108.58619 | 37892 ft | 474 kts | 33° |
| 2026-05-05 16:31 | 9.73432 | 108.62300 | 37894 ft | 475 kts | 33° |
| 2026-05-05 16:32 | 9.78922 | 108.65967 | 37901 ft | 477 kts | 33° |
| 2026-05-05 16:32 | 9.84455 | 108.69668 | 37900 ft | 477 kts | 33° |
| 2026-05-05 16:33 | 9.90005 | 108.73378 | 37897 ft | 478 kts | 33° |
| 2026-05-05 16:33 | 9.95568 | 108.77094 | 37895 ft | 479 kts | 33° |
| 2026-05-05 16:34 | 10.01121 | 108.80824 | 37897 ft | 479 kts | 33° |
| 2026-05-05 16:34 | 10.06634 | 108.84506 | 37890 ft | 477 kts | 33° |
| 2026-05-05 16:35 | 10.12188 | 108.88216 | 37897 ft | 478 kts | 33° |
| 2026-05-05 16:35 | 10.17737 | 108.91931 | 37892 ft | 477 kts | 33° |
| 2026-05-05 16:36 | 10.23269 | 108.95640 | 37891 ft | 476 kts | 33° |
| 2026-05-05 16:36 | 10.28782 | 108.99326 | 37894 ft | 478 kts | 33° |
| 2026-05-05 16:37 | 10.34327 | 109.03049 | 37899 ft | 478 kts | 33° |
| 2026-05-05 16:37 | 10.39873 | 109.06775 | 37893 ft | 478 kts | 33° |
| 2026-05-05 16:38 | 10.45412 | 109.10491 | 37892 ft | 477 kts | 33° |
| 2026-05-05 16:38 | 10.50908 | 109.14179 | 37903 ft | 476 kts | 33° |
| 2026-05-05 16:39 | 10.56425 | 109.17885 | 37896 ft | 475 kts | 33° |
| 2026-05-05 16:39 | 10.61925 | 109.21582 | 37898 ft | 473 kts | 32° |
| 2026-05-05 16:40 | 10.67415 | 109.25269 | 37896 ft | 473 kts | 32° |
| 2026-05-05 16:40 | 10.72908 | 109.28963 | 37897 ft | 474 kts | 33° |
| 2026-05-05 16:41 | 10.78373 | 109.32643 | 37902 ft | 476 kts | 33° |
| 2026-05-05 16:41 | 10.83903 | 109.36365 | 37897 ft | 477 kts | 33° |
| 2026-05-05 16:42 | 10.89452 | 109.40102 | 37898 ft | 479 kts | 33° |
| 2026-05-05 16:42 | 10.95011 | 109.43848 | 37896 ft | 480 kts | 33° |
| 2026-05-05 16:43 | 11.00576 | 109.47601 | 37903 ft | 480 kts | 32° |
| 2026-05-05 16:43 | 11.06094 | 109.51323 | 37894 ft | 479 kts | 32° |
| 2026-05-05 16:44 | 11.11645 | 109.55067 | 37898 ft | 478 kts | 32° |
| 2026-05-05 16:44 | 11.17220 | 109.58750 | 37900 ft | 477 kts | 31° |
| 2026-05-05 16:45 | 11.22799 | 109.62404 | 37897 ft | 477 kts | 32° |
| 2026-05-05 16:45 | 11.28335 | 109.66043 | 37891 ft | 477 kts | 32° |
| 2026-05-05 16:46 | 11.33906 | 109.69710 | 37899 ft | 477 kts | 32° |
| 2026-05-05 16:46 | 11.39469 | 109.73379 | 37899 ft | 477 kts | 32° |
| 2026-05-05 16:47 | 11.45036 | 109.77054 | 37899 ft | 477 kts | 32° |
| 2026-05-05 16:47 | 11.50612 | 109.80736 | 37907 ft | 478 kts | 31° |
| 2026-05-05 16:48 | 11.56159 | 109.84399 | 37903 ft | 478 kts | 32° |
| 2026-05-05 16:48 | 11.61746 | 109.88091 | 37897 ft | 479 kts | 31° |
| 2026-05-05 16:49 | 11.67334 | 109.91785 | 37899 ft | 478 kts | 32° |
| 2026-05-05 16:49 | 11.72919 | 109.95479 | 37889 ft | 478 kts | 31° |
| 2026-05-05 16:50 | 11.78465 | 109.99148 | 37901 ft | 478 kts | 31° |
| 2026-05-05 16:50 | 11.84051 | 110.02849 | 37903 ft | 479 kts | 32° |
| 2026-05-05 16:51 | 11.89645 | 110.06554 | 37905 ft | 480 kts | 32° |
| 2026-05-05 16:51 | 11.95247 | 110.10264 | 37901 ft | 480 kts | 31° |
| 2026-05-05 16:52 | 12.00856 | 110.13983 | 37892 ft | 481 kts | 32° |
| 2026-05-05 16:52 | 12.06434 | 110.17686 | 37898 ft | 482 kts | 32° |
| 2026-05-05 16:53 | 12.12067 | 110.21424 | 37902 ft | 483 kts | 31° |
| 2026-05-05 16:53 | 12.17710 | 110.25169 | 37902 ft | 484 kts | 31° |
| 2026-05-05 16:54 | 12.23327 | 110.28903 | 37899 ft | 485 kts | 32° |
| 2026-05-05 16:54 | 12.28984 | 110.32665 | 37900 ft | 485 kts | 32° |
| 2026-05-05 16:55 | 12.34651 | 110.36434 | 37895 ft | 486 kts | 32° |
| 2026-05-05 16:55 | 12.40279 | 110.40242 | 37899 ft | 485 kts | 33° |
| 2026-05-05 16:56 | 12.45860 | 110.44152 | 37899 ft | 487 kts | 33° |
| 2026-05-05 16:56 | 12.51419 | 110.48063 | 37902 ft | 489 kts | 33° |
| 2026-05-05 16:57 | 12.57035 | 110.51995 | 37903 ft | 489 kts | 33° |
| 2026-05-05 16:57 | 12.62663 | 110.55925 | 37901 ft | 490 kts | 33° |
| 2026-05-05 16:58 | 12.68285 | 110.59859 | 37894 ft | 488 kts | 32° |
| 2026-05-05 16:58 | 12.73879 | 110.63728 | 37918 ft | 488 kts | 33° |
| 2026-05-05 16:59 | 12.79481 | 110.67665 | 37877 ft | 485 kts | 32° |
| 2026-05-05 16:59 | 12.85074 | 110.71580 | 37905 ft | 489 kts | 32° |
| 2026-05-05 17:00 | 12.90712 | 110.75538 | 37896 ft | 492 kts | 32° |
| 2026-05-05 17:00 | 12.96354 | 110.79508 | 37905 ft | 492 kts | 32° |
| 2026-05-05 17:01 | 13.01969 | 110.83449 | 37905 ft | 492 kts | 32° |
| 2026-05-05 17:01 | 13.07613 | 110.87407 | 37894 ft | 491 kts | 32° |
| 2026-05-05 17:02 | 13.13246 | 110.91359 | 37896 ft | 489 kts | 32° |
| 2026-05-05 17:02 | 13.18854 | 110.95300 | 37896 ft | 488 kts | 32° |
| 2026-05-05 17:03 | 13.24445 | 110.99232 | 37899 ft | 487 kts | 32° |
| 2026-05-05 17:03 | 13.29993 | 111.03130 | 37901 ft | 486 kts | 32° |
| 2026-05-05 17:04 | 13.35576 | 111.07054 | 37910 ft | 487 kts | 32° |
| 2026-05-05 17:04 | 13.41160 | 111.10987 | 37899 ft | 487 kts | 32° |
| 2026-05-05 17:05 | 13.46741 | 111.14920 | 37899 ft | 486 kts | 32° |
| 2026-05-05 17:05 | 13.52278 | 111.18827 | 37898 ft | 486 kts | 32° |
| 2026-05-05 17:06 | 13.57844 | 111.22753 | 37894 ft | 485 kts | 32° |
| 2026-05-05 17:06 | 13.63407 | 111.26675 | 37891 ft | 485 kts | 32° |
| 2026-05-05 17:07 | 13.68979 | 111.30609 | 37896 ft | 486 kts | 32° |
| 2026-05-05 17:07 | 13.74569 | 111.34555 | 37896 ft | 488 kts | 32° |
| 2026-05-05 17:08 | 13.80129 | 111.38488 | 37898 ft | 489 kts | 32° |
| 2026-05-05 17:08 | 13.85741 | 111.42460 | 37896 ft | 490 kts | 32° |
| 2026-05-05 17:09 | 13.91360 | 111.46437 | 37894 ft | 490 kts | 32° |
| 2026-05-05 17:09 | 13.96973 | 111.50412 | 37903 ft | 490 kts | 32° |
| 2026-05-05 17:10 | 14.02563 | 111.54353 | 37895 ft | 489 kts | 32° |
| 2026-05-05 17:10 | 14.08181 | 111.58295 | 37893 ft | 488 kts | 32° |
| 2026-05-05 17:11 | 14.13787 | 111.62236 | 37893 ft | 488 kts | 32° |
| 2026-05-05 17:11 | 14.19393 | 111.66177 | 37896 ft | 487 kts | 32° |
| 2026-05-05 17:12 | 14.24984 | 111.70114 | 37893 ft | 487 kts | 32° |
| 2026-05-05 17:12 | 14.30578 | 111.74055 | 37896 ft | 487 kts | 32° |
| 2026-05-05 17:13 | 14.36128 | 111.77970 | 37896 ft | 487 kts | 32° |
| 2026-05-05 17:13 | 14.41718 | 111.81913 | 37893 ft | 487 kts | 32° |
| 2026-05-05 17:14 | 14.47307 | 111.85860 | 37891 ft | 487 kts | 32° |
| 2026-05-05 17:14 | 14.52886 | 111.89803 | 37893 ft | 486 kts | 32° |
| 2026-05-05 17:15 | 14.58433 | 111.93726 | 37904 ft | 487 kts | 32° |
| 2026-05-05 17:15 | 14.64008 | 111.97704 | 37890 ft | 487 kts | 32° |
| 2026-05-05 17:16 | 14.69585 | 112.01687 | 37902 ft | 488 kts | 32° |
| 2026-05-05 17:16 | 14.75190 | 112.05654 | 37899 ft | 489 kts | 31° |
| 2026-05-05 17:17 | 14.80786 | 112.09570 | 37897 ft | 489 kts | 31° |
| 2026-05-05 17:17 | 14.86422 | 112.13518 | 37894 ft | 489 kts | 31° |
| 2026-05-05 17:18 | 14.92054 | 112.17477 | 37898 ft | 489 kts | 31° |
| 2026-05-05 17:18 | 14.97686 | 112.21441 | 37897 ft | 490 kts | 31° |
| 2026-05-05 17:19 | 15.03285 | 112.25386 | 37898 ft | 490 kts | 31° |
| 2026-05-05 17:19 | 15.08916 | 112.29353 | 37897 ft | 490 kts | 31° |
| 2026-05-05 17:20 | 15.14553 | 112.33326 | 37896 ft | 490 kts | 31° |
| 2026-05-05 17:20 | 15.20180 | 112.37297 | 37897 ft | 489 kts | 31° |
| 2026-05-05 17:21 | 15.25801 | 112.41265 | 37894 ft | 489 kts | 31° |
| 2026-05-05 17:22 | 15.34184 | 112.47188 | 37902 ft | 488 kts | 31° |
| 2026-05-05 17:22 | 15.39799 | 112.51159 | 37894 ft | 488 kts | 31° |
| 2026-05-05 17:23 | 15.45406 | 112.55125 | 37899 ft | 487 kts | 31° |
| 2026-05-05 17:23 | 15.51003 | 112.59089 | 37898 ft | 488 kts | 31° |
| 2026-05-05 17:24 | 15.56603 | 112.63056 | 37902 ft | 488 kts | 31° |
| 2026-05-05 17:24 | 15.62170 | 112.67005 | 37885 ft | 488 kts | 31° |
| 2026-05-05 17:25 | 15.67776 | 112.70984 | 37896 ft | 488 kts | 31° |
| 2026-05-05 17:25 | 15.73381 | 112.74964 | 37897 ft | 489 kts | 31° |
| 2026-05-05 17:26 | 15.78957 | 112.78926 | 37906 ft | 489 kts | 31° |
| 2026-05-05 17:26 | 15.84573 | 112.82919 | 37888 ft | 489 kts | 31° |
| 2026-05-05 17:27 | 15.90184 | 112.86908 | 37887 ft | 489 kts | 31° |
| 2026-05-05 17:27 | 15.95802 | 112.90909 | 37892 ft | 489 kts | 31° |
| 2026-05-05 17:28 | 16.01421 | 112.94913 | 37906 ft | 490 kts | 31° |
| 2026-05-05 17:28 | 16.07004 | 112.98894 | 37902 ft | 490 kts | 32° |
| 2026-05-05 17:29 | 16.12629 | 113.02907 | 37888 ft | 490 kts | 32° |
| 2026-05-05 17:29 | 16.18247 | 113.06919 | 37894 ft | 490 kts | 32° |
| 2026-05-05 17:30 | 16.23868 | 113.10934 | 37894 ft | 489 kts | 32° |
| 2026-05-05 17:30 | 16.29437 | 113.14916 | 37896 ft | 489 kts | 32° |
| 2026-05-05 17:31 | 16.35039 | 113.18924 | 37899 ft | 488 kts | 32° |
| 2026-05-05 17:31 | 16.40637 | 113.22930 | 37901 ft | 488 kts | 32° |
| 2026-05-05 17:32 | 16.46231 | 113.26938 | 37891 ft | 488 kts | 32° |
| 2026-05-05 17:32 | 16.51781 | 113.30919 | 37894 ft | 487 kts | 32° |
| 2026-05-05 17:33 | 16.57363 | 113.34924 | 37895 ft | 487 kts | 32° |
| 2026-05-05 17:33 | 16.62939 | 113.38930 | 37894 ft | 487 kts | 32° |
| 2026-05-05 17:34 | 16.68521 | 113.42941 | 37901 ft | 487 kts | 32° |
| 2026-05-05 17:34 | 16.74108 | 113.46953 | 37896 ft | 487 kts | 32° |
| 2026-05-05 17:35 | 16.79645 | 113.50939 | 37891 ft | 487 kts | 32° |
| 2026-05-05 17:35 | 16.85220 | 113.54957 | 37893 ft | 487 kts | 32° |
| 2026-05-05 17:36 | 16.90793 | 113.58973 | 37897 ft | 487 kts | 32° |
| 2026-05-05 17:36 | 16.96373 | 113.62997 | 37895 ft | 487 kts | 32° |
| 2026-05-05 17:37 | 17.01952 | 113.67025 | 37901 ft | 487 kts | 32° |
| 2026-05-05 17:37 | 17.07503 | 113.71010 | 37895 ft | 487 kts | 32° |
| 2026-05-05 17:38 | 17.13114 | 113.74991 | 37896 ft | 487 kts | 32° |
| 2026-05-05 17:38 | 17.18718 | 113.78966 | 37890 ft | 487 kts | 32° |
| 2026-05-05 17:39 | 17.24311 | 113.82953 | 37900 ft | 486 kts | 32° |
| 2026-05-05 17:39 | 17.29896 | 113.86934 | 37901 ft | 485 kts | 32° |
| 2026-05-05 17:40 | 17.35440 | 113.90893 | 37894 ft | 486 kts | 32° |
| 2026-05-05 17:40 | 17.41020 | 113.94879 | 37893 ft | 486 kts | 32° |
| 2026-05-05 17:41 | 17.46603 | 113.98868 | 37896 ft | 486 kts | 32° |
| 2026-05-05 17:41 | 17.52181 | 114.02860 | 37897 ft | 486 kts | 32° |
| 2026-05-05 17:42 | 17.57723 | 114.06828 | 37899 ft | 486 kts | 32° |
| 2026-05-05 17:42 | 17.63309 | 114.10830 | 37895 ft | 486 kts | 31° |
| 2026-05-05 17:43 | 17.68894 | 114.14835 | 37894 ft | 486 kts | 31° |
| 2026-05-05 17:43 | 17.74479 | 114.18844 | 37895 ft | 487 kts | 32° |
| 2026-05-05 17:44 | 17.80069 | 114.22856 | 37896 ft | 487 kts | 31° |
| 2026-05-05 17:44 | 17.85620 | 114.26845 | 37908 ft | 487 kts | 31° |
| 2026-05-05 17:45 | 17.91211 | 114.30866 | 37891 ft | 487 kts | 31° |
| 2026-05-05 17:45 | 17.96802 | 114.34894 | 37893 ft | 487 kts | 31° |
| 2026-05-05 17:46 | 18.02396 | 114.38922 | 37887 ft | 487 kts | 31° |
| 2026-05-05 17:46 | 18.07948 | 114.42924 | 37891 ft | 487 kts | 31° |
| 2026-05-05 17:47 | 18.13537 | 114.46957 | 37893 ft | 487 kts | 31° |
| 2026-05-05 17:47 | 18.19127 | 114.50991 | 37902 ft | 486 kts | 30° |
| 2026-05-05 17:47 | 18.22075 | 114.52664 | 37889 ft | 479 kts | 17° |
| 2026-05-05 17:48 | 18.25265 | 114.53575 | 37904 ft | 473 kts | 5° |
| 2026-05-05 17:48 | 18.28531 | 114.53822 | 37901 ft | 468 kts | 354° |
| 2026-05-05 17:48 | 18.31745 | 114.53458 | 37912 ft | 464 kts | 349° |
| 2026-05-05 17:49 | 18.38123 | 114.52563 | 37898 ft | 467 kts | 349° |
| 2026-05-05 17:49 | 18.44579 | 114.51691 | 37897 ft | 469 kts | 350° |
| 2026-05-05 17:50 | 18.51064 | 114.50861 | 37902 ft | 471 kts | 350° |
| 2026-05-05 17:50 | 18.57570 | 114.50046 | 37900 ft | 471 kts | 350° |
| 2026-05-05 17:51 | 18.64032 | 114.49238 | 37896 ft | 471 kts | 350° |
| 2026-05-05 17:51 | 18.70539 | 114.48421 | 37895 ft | 470 kts | 350° |
| 2026-05-05 17:52 | 18.77026 | 114.47604 | 37909 ft | 470 kts | 349° |
| 2026-05-05 17:52 | 18.83511 | 114.46784 | 37898 ft | 469 kts | 349° |
| 2026-05-05 17:53 | 18.89983 | 114.45967 | 37905 ft | 468 kts | 349° |
| 2026-05-05 17:53 | 18.96405 | 114.45154 | 37897 ft | 468 kts | 349° |
| 2026-05-05 17:54 | 19.02867 | 114.44379 | 37899 ft | 468 kts | 351° |
| 2026-05-05 17:54 | 19.09360 | 114.43823 | 37908 ft | 468 kts | 352° |
| 2026-05-05 17:55 | 19.15853 | 114.43305 | 37901 ft | 468 kts | 352° |
| 2026-05-05 17:55 | 19.22348 | 114.42758 | 37913 ft | 468 kts | 352° |
| 2026-05-05 17:56 | 19.28794 | 114.42197 | 37892 ft | 468 kts | 352° |
| 2026-05-05 17:56 | 19.35291 | 114.41627 | 37892 ft | 468 kts | 352° |
| 2026-05-05 17:57 | 19.41788 | 114.41061 | 37914 ft | 469 kts | 352° |
| 2026-05-05 17:57 | 19.48292 | 114.40493 | 37899 ft | 469 kts | 352° |
| 2026-05-05 17:58 | 19.54755 | 114.39928 | 37907 ft | 469 kts | 352° |
| 2026-05-05 17:58 | 19.61260 | 114.39359 | 37907 ft | 469 kts | 352° |
| 2026-05-05 17:59 | 19.67770 | 114.38789 | 37913 ft | 470 kts | 352° |
| 2026-05-05 17:59 | 19.74285 | 114.38218 | 37914 ft | 470 kts | 352° |
| 2026-05-05 18:00 | 19.80797 | 114.37646 | 37904 ft | 469 kts | 352° |
| 2026-05-05 18:00 | 19.87256 | 114.37081 | 37911 ft | 468 kts | 352° |
| 2026-05-05 18:01 | 19.93743 | 114.36512 | 37916 ft | 468 kts | 352° |
| 2026-05-05 18:01 | 20.00234 | 114.35945 | 37909 ft | 468 kts | 352° |
| 2026-05-05 18:02 | 20.06719 | 114.35379 | 37920 ft | 467 kts | 351° |
| 2026-05-05 18:02 | 20.12107 | 114.34908 | 37910 ft | 467 kts | 351° |
| 2026-05-05 18:03 | 20.19625 | 114.34249 | 37912 ft | 466 kts | 351° |
| 2026-05-05 18:03 | 20.26090 | 114.33682 | 37907 ft | 466 kts | 351° |
| 2026-05-05 18:04 | 20.31460 | 114.33210 | 37910 ft | 466 kts | 351° |
| 2026-05-05 18:04 | 20.37914 | 114.32641 | 37912 ft | 465 kts | 351° |
| 2026-05-05 18:05 | 20.45410 | 114.31982 | 37918 ft | 465 kts | 351° |
| 2026-05-05 18:05 | 20.50782 | 114.31509 | 37918 ft | 466 kts | 351° |
| 2026-05-05 18:06 | 20.57241 | 114.30939 | 37924 ft | 466 kts | 351° |
| 2026-05-05 18:06 | 20.63702 | 114.30369 | 37918 ft | 466 kts | 351° |
| 2026-05-05 18:07 | 20.70170 | 114.29798 | 37929 ft | 466 kts | 351° |
| 2026-05-05 18:07 | 20.76633 | 114.29229 | 37924 ft | 466 kts | 351° |
| 2026-05-05 18:08 | 20.83042 | 114.28663 | 37925 ft | 465 kts | 351° |
| 2026-05-05 18:08 | 20.89484 | 114.28104 | 37924 ft | 464 kts | 351° |
| 2026-05-05 18:09 | 20.95917 | 114.27553 | 37940 ft | 464 kts | 351° |
| 2026-05-05 18:09 | 21.02343 | 114.26994 | 37929 ft | 463 kts | 351° |
| 2026-05-05 18:10 | 21.08748 | 114.26432 | 37931 ft | 462 kts | 351° |
| 2026-05-05 18:10 | 21.15106 | 114.25854 | 37932 ft | 461 kts | 351° |
| 2026-05-05 18:11 | 21.21498 | 114.25271 | 37926 ft | 461 kts | 351° |
| 2026-05-05 18:11 | 21.27884 | 114.24693 | 37950 ft | 460 kts | 350° |
| 2026-05-05 18:12 | 21.34265 | 114.24114 | 37936 ft | 460 kts | 350° |
| 2026-05-05 18:12 | 21.40591 | 114.23545 | 37934 ft | 459 kts | 350° |
| 2026-05-05 18:13 | 21.46955 | 114.22977 | 37933 ft | 459 kts | 350° |
| 2026-05-05 18:13 | 21.53325 | 114.22405 | 37940 ft | 459 kts | 350° |
| 2026-05-05 18:14 | 21.59692 | 114.21831 | 37948 ft | 460 kts | 350° |
| 2026-05-05 18:14 | 21.66067 | 114.21258 | 37942 ft | 460 kts | 350° |
| 2026-05-05 18:15 | 21.72439 | 114.20687 | 37942 ft | 459 kts | 350° |
| 2026-05-05 18:15 | 21.78765 | 114.20119 | 37945 ft | 459 kts | 350° |
| 2026-05-05 18:16 | 21.85124 | 114.19549 | 37946 ft | 459 kts | 350° |
| 2026-05-05 18:16 | 21.91482 | 114.18977 | 37947 ft | 458 kts | 349° |
| 2026-05-05 18:17 | 21.97827 | 114.18408 | 37947 ft | 457 kts | 349° |
| 2026-05-05 18:17 | 22.04109 | 114.17840 | 37945 ft | 456 kts | 349° |
| 2026-05-05 18:18 | 22.10432 | 114.17269 | 37957 ft | 455 kts | 349° |
| 2026-05-05 18:18 | 22.16746 | 114.16699 | 37960 ft | 455 kts | 349° |
| 2026-05-05 18:19 | 22.23053 | 114.16130 | 37966 ft | 455 kts | 349° |
| 2026-05-05 18:19 | 22.29354 | 114.15561 | 37963 ft | 454 kts | 349° |
| 2026-05-05 18:20 | 22.35612 | 114.14995 | 37968 ft | 454 kts | 349° |
| 2026-05-05 18:20 | 22.41904 | 114.14425 | 37961 ft | 454 kts | 349° |
| 2026-05-05 18:21 | 22.48198 | 114.13854 | 37987 ft | 454 kts | 349° |
| 2026-05-05 18:21 | 22.54342 | 114.12667 | 37980 ft | 445 kts | 339° |
| 2026-05-05 18:22 | 22.60125 | 114.10406 | 37977 ft | 439 kts | 330° |
| 2026-05-05 18:22 | 22.65580 | 114.07586 | 37980 ft | 438 kts | 329° |
| 2026-05-05 18:23 | 22.71081 | 114.04720 | 37975 ft | 439 kts | 330° |
| 2026-05-05 18:23 | 22.76603 | 114.01876 | 37959 ft | 440 kts | 330° |
| 2026-05-05 18:24 | 22.82131 | 113.99039 | 37973 ft | 440 kts | 330° |
| 2026-05-05 18:24 | 22.87635 | 113.96212 | 37962 ft | 440 kts | 330° |
| 2026-05-05 18:25 | 22.93164 | 113.93356 | 37974 ft | 440 kts | 330° |
| 2026-05-05 18:25 | 22.98676 | 113.90484 | 37976 ft | 439 kts | 330° |
| 2026-05-05 18:26 | 23.04248 | 113.87768 | 37955 ft | 443 kts | 340° |
| 2026-05-05 18:26 | 23.07331 | 113.87342 | 37975 ft | 455 kts | 355° |
| 2026-05-05 18:26 | 23.10507 | 113.87787 | 37978 ft | 466 kts | 7° |
| 2026-05-05 18:26 | 23.13578 | 113.88865 | 37980 ft | 477 kts | 18° |
| 2026-05-05 18:27 | 23.16431 | 113.90805 | 37983 ft | 491 kts | 31° |
| 2026-05-05 18:27 | 23.21691 | 113.95593 | 37977 ft | 494 kts | 33° |
| 2026-05-05 18:28 | 23.29707 | 114.02619 | 37974 ft | 493 kts | 31° |
| 2026-05-05 18:28 | 23.35102 | 114.07220 | 37977 ft | 493 kts | 31° |
| 2026-05-05 18:29 | 23.40464 | 114.11802 | 37978 ft | 494 kts | 31° |
| 2026-05-05 18:29 | 23.45868 | 114.16432 | 37973 ft | 495 kts | 31° |
| 2026-05-05 18:30 | 23.51270 | 114.21066 | 37982 ft | 494 kts | 31° |
| 2026-05-05 18:30 | 23.56660 | 114.25695 | 37985 ft | 493 kts | 31° |
| 2026-05-05 18:31 | 23.62041 | 114.30323 | 37976 ft | 492 kts | 31° |
| 2026-05-05 18:31 | 23.67394 | 114.34886 | 37984 ft | 491 kts | 30° |
| 2026-05-05 18:32 | 23.72848 | 114.39341 | 37988 ft | 489 kts | 29° |
| 2026-05-05 18:32 | 23.78304 | 114.43773 | 37985 ft | 488 kts | 30° |
| 2026-05-05 18:33 | 23.83744 | 114.48224 | 37982 ft | 489 kts | 30° |
| 2026-05-05 18:33 | 23.89166 | 114.52681 | 38014 ft | 488 kts | 30° |
| 2026-05-05 18:34 | 23.94558 | 114.57121 | 37997 ft | 489 kts | 30° |
| 2026-05-05 18:34 | 23.99994 | 114.61600 | 37989 ft | 489 kts | 30° |
| 2026-05-05 18:35 | 24.05433 | 114.66084 | 38003 ft | 490 kts | 30° |
| 2026-05-05 18:35 | 24.10874 | 114.70575 | 37999 ft | 490 kts | 30° |
| 2026-05-05 18:36 | 24.16319 | 114.75077 | 38008 ft | 490 kts | 30° |
| 2026-05-05 18:36 | 24.21721 | 114.79550 | 37991 ft | 490 kts | 30° |
| 2026-05-05 18:37 | 24.27304 | 114.83703 | 37992 ft | 478 kts | 19° |
| 2026-05-05 18:37 | 24.33387 | 114.86347 | 37995 ft | 463 kts | 6° |
| 2026-05-05 18:38 | 24.39642 | 114.87862 | 37994 ft | 460 kts | 5° |
| 2026-05-05 18:38 | 24.45865 | 114.89328 | 38006 ft | 461 kts | 5° |
| 2026-05-05 18:39 | 24.52115 | 114.90854 | 37993 ft | 460 kts | 5° |
| 2026-05-05 18:39 | 24.58344 | 114.92394 | 37986 ft | 458 kts | 5° |
| 2026-05-05 18:40 | 24.64557 | 114.93935 | 38010 ft | 457 kts | 5° |
| 2026-05-05 18:40 | 24.70759 | 114.95487 | 38001 ft | 457 kts | 5° |
| 2026-05-05 18:41 | 24.76923 | 114.97029 | 37996 ft | 457 kts | 5° |
| 2026-05-05 18:41 | 24.83130 | 114.98548 | 37996 ft | 456 kts | 5° |
| 2026-05-05 18:42 | 24.89334 | 115.00053 | 37990 ft | 457 kts | 5° |
| 2026-05-05 18:42 | 24.95550 | 115.01568 | 38018 ft | 458 kts | 5° |
| 2026-05-05 18:43 | 25.01731 | 115.03081 | 38000 ft | 458 kts | 5° |
| 2026-05-05 18:43 | 25.07959 | 115.04606 | 37983 ft | 459 kts | 5° |
| 2026-05-05 18:44 | 25.14189 | 115.06134 | 37994 ft | 459 kts | 5° |
| 2026-05-05 18:44 | 25.20423 | 115.07664 | 37989 ft | 459 kts | 5° |
| 2026-05-05 18:45 | 25.26660 | 115.09195 | 37992 ft | 459 kts | 5° |
| 2026-05-05 18:45 | 25.32848 | 115.10284 | 37988 ft | 445 kts | 352° |
| 2026-05-05 18:46 | 25.38827 | 115.09168 | 37989 ft | 431 kts | 336° |
| 2026-05-05 18:46 | 25.44231 | 115.06463 | 37987 ft | 427 kts | 330° |
| 2026-05-05 18:47 | 25.49602 | 115.03624 | 37981 ft | 429 kts | 330° |
| 2026-05-05 18:47 | 25.54985 | 115.00830 | 37967 ft | 432 kts | 331° |
| 2026-05-05 18:48 | 25.60428 | 114.98021 | 37973 ft | 432 kts | 331° |
| 2026-05-05 18:48 | 25.65880 | 114.95210 | 37976 ft | 432 kts | 331° |
| 2026-05-05 18:49 | 25.71329 | 114.92397 | 37971 ft | 432 kts | 331° |
| 2026-05-05 18:49 | 25.77042 | 114.90503 | 37985 ft | 445 kts | 353° |
| 2026-05-05 18:50 | 25.80163 | 114.90851 | 37972 ft | 458 kts | 6° |
| 2026-05-05 18:50 | 25.83227 | 114.91931 | 38001 ft | 468 kts | 15° |
| 2026-05-05 18:50 | 25.86131 | 114.93652 | 37960 ft | 482 kts | 30° |
| 2026-05-05 18:50 | 25.88619 | 114.96191 | 38003 ft | 490 kts | 39° |
| 2026-05-05 18:51 | 25.93223 | 115.01823 | 37987 ft | 493 kts | 41° |
| 2026-05-05 18:51 | 25.97756 | 115.07487 | 37966 ft | 494 kts | 40° |
| 2026-05-05 18:52 | 26.02398 | 115.13118 | 37976 ft | 494 kts | 40° |
| 2026-05-05 18:52 | 26.07083 | 115.18703 | 37973 ft | 494 kts | 39° |
| 2026-05-05 18:53 | 26.11777 | 115.24279 | 37971 ft | 494 kts | 39° |
| 2026-05-05 18:53 | 26.16464 | 115.29863 | 37972 ft | 494 kts | 39° |
| 2026-05-05 18:54 | 26.21110 | 115.35412 | 37980 ft | 493 kts | 39° |
| 2026-05-05 18:54 | 26.25784 | 115.41008 | 37975 ft | 493 kts | 39° |
| 2026-05-05 18:55 | 26.30458 | 115.46606 | 37988 ft | 493 kts | 39° |
| 2026-05-05 18:55 | 26.35128 | 115.52201 | 37985 ft | 493 kts | 39° |
| 2026-05-05 18:56 | 26.39753 | 115.57760 | 37983 ft | 492 kts | 39° |
| 2026-05-05 18:56 | 26.44401 | 115.63344 | 37985 ft | 490 kts | 39° |
| 2026-05-05 18:57 | 26.49034 | 115.68925 | 37986 ft | 490 kts | 39° |
| 2026-05-05 18:57 | 26.53661 | 115.74503 | 37997 ft | 489 kts | 39° |
| 2026-05-05 18:58 | 26.58278 | 115.80078 | 37991 ft | 488 kts | 39° |
| 2026-05-05 18:58 | 26.62849 | 115.85603 | 37981 ft | 487 kts | 39° |
| 2026-05-05 18:59 | 26.67449 | 115.91162 | 37996 ft | 486 kts | 39° |
| 2026-05-05 18:59 | 26.72038 | 115.96724 | 38006 ft | 486 kts | 39° |
| 2026-05-05 19:00 | 26.76619 | 116.02286 | 37993 ft | 485 kts | 39° |
| 2026-05-05 19:00 | 26.81156 | 116.07796 | 37990 ft | 483 kts | 39° |
| 2026-05-05 19:01 | 26.85702 | 116.13326 | 37995 ft | 483 kts | 39° |
| 2026-05-05 19:01 | 26.90245 | 116.18856 | 37976 ft | 482 kts | 39° |
| 2026-05-05 19:02 | 26.94780 | 116.24361 | 38021 ft | 480 kts | 39° |
| 2026-05-05 19:02 | 26.99299 | 116.29799 | 37999 ft | 480 kts | 39° |
| 2026-05-05 19:03 | 27.03841 | 116.35271 | 37989 ft | 479 kts | 39° |
| 2026-05-05 19:03 | 27.08378 | 116.40750 | 37992 ft | 479 kts | 39° |
| 2026-05-05 19:04 | 27.12912 | 116.46237 | 37993 ft | 479 kts | 39° |
| 2026-05-05 19:04 | 27.17413 | 116.51689 | 38013 ft | 479 kts | 39° |
| 2026-05-05 19:05 | 27.21945 | 116.57171 | 38008 ft | 477 kts | 38° |
| 2026-05-05 19:05 | 27.26540 | 116.62530 | 37984 ft | 475 kts | 37° |
| 2026-05-05 19:06 | 27.31140 | 116.67845 | 37987 ft | 474 kts | 37° |
| 2026-05-05 19:06 | 27.35718 | 116.73165 | 37982 ft | 473 kts | 38° |
| 2026-05-05 19:07 | 27.40248 | 116.78453 | 37997 ft | 472 kts | 38° |
| 2026-05-05 19:07 | 27.44798 | 116.83781 | 37991 ft | 471 kts | 38° |
| 2026-05-05 19:08 | 27.49337 | 116.89094 | 38000 ft | 470 kts | 37° |
| 2026-05-05 19:08 | 27.53874 | 116.94396 | 38000 ft | 470 kts | 37° |
| 2026-05-05 19:09 | 27.58449 | 116.99678 | 38009 ft | 471 kts | 37° |
| 2026-05-05 19:09 | 27.63007 | 117.04937 | 37990 ft | 472 kts | 37° |
| 2026-05-05 19:10 | 27.67577 | 117.10226 | 38001 ft | 470 kts | 37° |
| 2026-05-05 19:10 | 27.72134 | 117.15514 | 38001 ft | 469 kts | 37° |
| 2026-05-05 19:11 | 27.76676 | 117.20786 | 38013 ft | 468 kts | 37° |
| 2026-05-05 19:11 | 27.81186 | 117.26039 | 38044 ft | 469 kts | 37° |
| 2026-05-05 19:12 | 27.85741 | 117.31338 | 37998 ft | 470 kts | 37° |
| 2026-05-05 19:12 | 27.90275 | 117.36626 | 38010 ft | 467 kts | 37° |
| 2026-05-05 19:13 | 27.94809 | 117.41907 | 37976 ft | 467 kts | 37° |
| 2026-05-05 19:13 | 27.99317 | 117.47192 | 37977 ft | 466 kts | 38° |
| 2026-05-05 19:14 | 28.03830 | 117.52464 | 37993 ft | 466 kts | 38° |
| 2026-05-05 19:14 | 28.08300 | 117.57709 | 37993 ft | 465 kts | 38° |
| 2026-05-05 19:15 | 28.12795 | 117.62974 | 37989 ft | 464 kts | 38° |
| 2026-05-05 19:15 | 28.17280 | 117.68233 | 38000 ft | 464 kts | 38° |
| 2026-05-05 19:16 | 28.21768 | 117.73501 | 37988 ft | 465 kts | 38° |
| 2026-05-05 19:16 | 28.26226 | 117.78743 | 37988 ft | 465 kts | 38° |
| 2026-05-05 19:17 | 28.30717 | 117.84030 | 37990 ft | 465 kts | 38° |
| 2026-05-05 19:17 | 28.35199 | 117.89320 | 37993 ft | 465 kts | 38° |
| 2026-05-05 19:18 | 28.39690 | 117.94619 | 37983 ft | 466 kts | 38° |
| 2026-05-05 19:18 | 28.44132 | 117.99918 | 38002 ft | 467 kts | 39° |
| 2026-05-05 19:19 | 28.48544 | 118.05350 | 37987 ft | 467 kts | 39° |
| 2026-05-05 19:19 | 28.52942 | 118.10794 | 37987 ft | 467 kts | 39° |
| 2026-05-05 19:20 | 28.57337 | 118.16222 | 37988 ft | 467 kts | 39° |
| 2026-05-05 19:20 | 28.61739 | 118.21653 | 37987 ft | 466 kts | 39° |
| 2026-05-05 19:21 | 28.66106 | 118.27048 | 38003 ft | 466 kts | 39° |
| 2026-05-05 19:21 | 28.70501 | 118.32480 | 37991 ft | 466 kts | 39° |
| 2026-05-05 19:22 | 28.74887 | 118.37911 | 38008 ft | 466 kts | 40° |
| 2026-05-05 19:22 | 28.79277 | 118.43355 | 37994 ft | 467 kts | 40° |
| 2026-05-05 19:23 | 28.83675 | 118.48815 | 37996 ft | 468 kts | 40° |
| 2026-05-05 19:23 | 28.88046 | 118.54250 | 38001 ft | 468 kts | 40° |
| 2026-05-05 19:24 | 28.92447 | 118.59734 | 37989 ft | 468 kts | 40° |
| 2026-05-05 19:24 | 28.96834 | 118.65205 | 37996 ft | 466 kts | 40° |
| 2026-05-05 19:25 | 29.01221 | 118.70679 | 38002 ft | 468 kts | 40° |
| 2026-05-05 19:25 | 29.05618 | 118.76174 | 38026 ft | 469 kts | 41° |
| 2026-05-05 19:26 | 29.09997 | 118.81656 | 38004 ft | 470 kts | 41° |
| 2026-05-05 19:26 | 29.14403 | 118.87183 | 37995 ft | 471 kts | 41° |
| 2026-05-05 19:27 | 29.18811 | 118.92712 | 38020 ft | 470 kts | 41° |
| 2026-05-05 19:27 | 29.23210 | 118.98248 | 37999 ft | 471 kts | 41° |
| 2026-05-05 19:28 | 29.27588 | 119.03770 | 38009 ft | 472 kts | 41° |
| 2026-05-05 19:28 | 29.31999 | 119.09353 | 38005 ft | 473 kts | 41° |
| 2026-05-05 19:29 | 29.36406 | 119.14936 | 38003 ft | 471 kts | 41° |
| 2026-05-05 19:29 | 29.40810 | 119.20499 | 38002 ft | 472 kts | 41° |
| 2026-05-05 19:30 | 29.45218 | 119.26072 | 38027 ft | 472 kts | 42° |
| 2026-05-05 19:30 | 29.49606 | 119.31640 | 38013 ft | 475 kts | 42° |
| 2026-05-05 19:31 | 29.54049 | 119.37275 | 37996 ft | 477 kts | 42° |
| 2026-05-05 19:31 | 29.58492 | 119.42954 | 38009 ft | 479 kts | 43° |
| 2026-05-05 19:32 | 29.62216 | 119.49329 | 38022 ft | 494 kts | 64° |
| 2026-05-05 19:32 | 29.63106 | 119.53173 | 37997 ft | 504 kts | 77° |
| 2026-05-05 19:32 | 29.63211 | 119.57172 | 38012 ft | 511 kts | 90° |
| 2026-05-05 19:33 | 29.62777 | 119.65318 | 38003 ft | 510 kts | 88° |
| 2026-05-05 19:33 | 29.62579 | 119.73460 | 37999 ft | 509 kts | 87° |
| 2026-05-05 19:34 | 29.62428 | 119.81587 | 38012 ft | 508 kts | 87° |
| 2026-05-05 19:35 | 29.62163 | 119.93753 | 38010 ft | 507 kts | 88° |
| 2026-05-05 19:35 | 29.61971 | 120.01807 | 38010 ft | 508 kts | 89° |
| 2026-05-05 19:36 | 29.61771 | 120.09923 | 38019 ft | 509 kts | 88° |
| 2026-05-05 19:36 | 29.61570 | 120.18062 | 38019 ft | 510 kts | 89° |
| 2026-05-05 19:37 | 29.61366 | 120.26207 | 38027 ft | 511 kts | 89° |
| 2026-05-05 19:37 | 29.61175 | 120.34369 | 38024 ft | 511 kts | 89° |
| 2026-05-05 19:38 | 29.60989 | 120.42495 | 38021 ft | 512 kts | 90° |
| 2026-05-05 19:38 | 29.60792 | 120.50683 | 38025 ft | 514 kts | 90° |
| 2026-05-05 19:39 | 29.60588 | 120.58893 | 38038 ft | 514 kts | 90° |
| 2026-05-05 19:39 | 29.60381 | 120.67107 | 38023 ft | 513 kts | 90° |
| 2026-05-05 19:39 | 29.60278 | 120.71110 | 37851 ft | 504 kts | 90° |
| 2026-05-05 19:40 | 29.60176 | 120.75106 | 37431 ft | 497 kts | 88° |
| 2026-05-05 19:40 | 29.60402 | 120.79048 | 36682 ft | 493 kts | 76° |
| 2026-05-05 19:40 | 29.61261 | 120.82823 | 36152 ft | 484 kts | 66° |
| 2026-05-05 19:40 | 29.62568 | 120.86332 | 35753 ft | 471 kts | 57° |
| 2026-05-05 19:41 | 29.64286 | 120.89474 | 35388 ft | 459 kts | 51° |
| 2026-05-05 19:41 | 29.66066 | 120.92493 | 35035 ft | 452 kts | 51° |
| 2026-05-05 19:41 | 29.67819 | 120.95459 | 34653 ft | 447 kts | 51° |
| 2026-05-05 19:41 | 29.69556 | 120.98414 | 34081 ft | 447 kts | 52° |
| 2026-05-05 19:42 | 29.71262 | 121.01348 | 33501 ft | 446 kts | 52° |
| 2026-05-05 19:42 | 29.72964 | 121.04308 | 33031 ft | 441 kts | 52° |
| 2026-05-05 19:42 | 29.74632 | 121.07226 | 32760 ft | 432 kts | 52° |
| 2026-05-05 19:42 | 29.76257 | 121.10077 | 32422 ft | 418 kts | 52° |
| 2026-05-05 19:43 | 29.77838 | 121.12849 | 31681 ft | 411 kts | 52° |
| 2026-05-05 19:43 | 29.79401 | 121.15584 | 30836 ft | 408 kts | 52° |
| 2026-05-05 19:43 | 29.80956 | 121.18308 | 29995 ft | 406 kts | 52° |
| 2026-05-05 19:43 | 29.82496 | 121.21011 | 29118 ft | 401 kts | 52° |
| 2026-05-05 19:44 | 29.84016 | 121.23682 | 28283 ft | 396 kts | 53° |
| 2026-05-05 19:44 | 29.85503 | 121.26294 | 27396 ft | 394 kts | 53° |
| 2026-05-05 19:44 | 29.87003 | 121.28927 | 26497 ft | 393 kts | 53° |
| 2026-05-05 19:44 | 29.88496 | 121.31548 | 25706 ft | 389 kts | 52° |
| 2026-05-05 19:45 | 29.90246 | 121.33873 | 24930 ft | 380 kts | 35° |
| 2026-05-05 19:45 | 29.92474 | 121.35439 | 24210 ft | 372 kts | 25° |
| 2026-05-05 19:45 | 29.94762 | 121.36811 | 23465 ft | 370 kts | 25° |
| 2026-05-05 19:45 | 29.97039 | 121.38190 | 22574 ft | 370 kts | 25° |
| 2026-05-05 19:46 | 29.99294 | 121.39572 | 21863 ft | 365 kts | 26° |
| 2026-05-05 19:46 | 30.01518 | 121.40945 | 21151 ft | 360 kts | 26° |
| 2026-05-05 19:46 | 30.03715 | 121.42307 | 20378 ft | 357 kts | 25° |
| 2026-05-05 19:46 | 30.05867 | 121.43647 | 19643 ft | 356 kts | 26° |
| 2026-05-05 19:47 | 30.08039 | 121.45003 | 18947 ft | 354 kts | 25° |
| 2026-05-05 19:47 | 30.10192 | 121.46348 | 18319 ft | 350 kts | 25° |
| 2026-05-05 19:47 | 30.12300 | 121.47667 | 17862 ft | 338 kts | 25° |
| 2026-05-05 19:47 | 30.14331 | 121.48940 | 17440 ft | 327 kts | 25° |
| 2026-05-05 19:48 | 30.16297 | 121.50171 | 17052 ft | 317 kts | 25° |
| 2026-05-05 19:48 | 30.18216 | 121.51372 | 16679 ft | 312 kts | 25° |
| 2026-05-05 19:48 | 30.20128 | 121.52568 | 16332 ft | 314 kts | 25° |
| 2026-05-05 19:48 | 30.22090 | 121.53794 | 15995 ft | 329 kts | 26° |
| 2026-05-05 19:49 | 30.24123 | 121.55067 | 15616 ft | 342 kts | 26° |
| 2026-05-05 19:49 | 30.25531 | 121.55952 | 15341 ft | 340 kts | 26° |
| 2026-05-05 19:49 | 30.28219 | 121.57682 | 14802 ft | 327 kts | 27° |
| 2026-05-05 19:49 | 30.30172 | 121.58955 | 14422 ft | 316 kts | 27° |
| 2026-05-05 19:50 | 30.32062 | 121.60183 | 14062 ft | 308 kts | 27° |
| 2026-05-05 19:50 | 30.33919 | 121.61386 | 13702 ft | 304 kts | 26° |
| 2026-05-05 19:50 | 30.35778 | 121.62588 | 13331 ft | 310 kts | 26° |
| 2026-05-05 19:50 | 30.37694 | 121.63845 | 12975 ft | 324 kts | 28° |
| 2026-05-05 19:51 | 30.39667 | 121.65218 | 12582 ft | 338 kts | 29° |
| 2026-05-05 19:51 | 30.41664 | 121.66634 | 12194 ft | 342 kts | 30° |
| 2026-05-05 19:51 | 30.43686 | 121.68070 | 11781 ft | 341 kts | 28° |
| 2026-05-05 19:51 | 30.45707 | 121.69499 | 11383 ft | 338 kts | 30° |
| 2026-05-05 19:52 | 30.47707 | 121.70912 | 10998 ft | 335 kts | 29° |
| 2026-05-05 19:52 | 30.49694 | 121.72314 | 10614 ft | 333 kts | 28° |
| 2026-05-05 19:52 | 30.51658 | 121.73698 | 10371 ft | 326 kts | 30° |
| 2026-05-05 19:52 | 30.53574 | 121.75047 | 10212 ft | 317 kts | 29° |
| 2026-05-05 19:53 | 30.55432 | 121.76355 | 10074 ft | 308 kts | 29° |
| 2026-05-05 19:53 | 30.57265 | 121.77572 | 9837 ft | 296 kts | 20° |
| 2026-05-05 19:53 | 30.59158 | 121.78216 | 9733 ft | 275 kts | 10° |
| 2026-05-05 19:53 | 30.60967 | 121.78675 | 9558 ft | 264 kts | 10° |
| 2026-05-05 19:54 | 30.62736 | 121.79124 | 9200 ft | 257 kts | 10° |
| 2026-05-05 19:54 | 30.64467 | 121.79569 | 8737 ft | 253 kts | 11° |
| 2026-05-05 19:54 | 30.66182 | 121.80016 | 8245 ft | 252 kts | 11° |
| 2026-05-05 19:54 | 30.67887 | 121.80465 | 7748 ft | 250 kts | 11° |
| 2026-05-05 19:55 | 30.69577 | 121.80915 | 7313 ft | 247 kts | 12° |
| 2026-05-05 19:55 | 30.71239 | 121.81359 | 6871 ft | 244 kts | 12° |
| 2026-05-05 19:55 | 30.72885 | 121.81805 | 6429 ft | 241 kts | 13° |
| 2026-05-05 19:55 | 30.74486 | 121.82239 | 6034 ft | 238 kts | 13° |
| 2026-05-05 19:56 | 30.76136 | 121.82687 | 5968 ft | 248 kts | 13° |
| 2026-05-05 19:56 | 30.77808 | 121.83141 | 5932 ft | 245 kts | 13° |
| 2026-05-05 19:56 | 30.79443 | 121.83588 | 5907 ft | 239 kts | 13° |
| 2026-05-05 19:56 | 30.81058 | 121.84026 | 5924 ft | 237 kts | 13° |
| 2026-05-05 19:57 | 30.82668 | 121.84466 | 5932 ft | 239 kts | 13° |
| 2026-05-05 19:57 | 30.83744 | 121.84760 | 5936 ft | 240 kts | 13° |
| 2026-05-05 19:57 | 30.85923 | 121.85352 | 5929 ft | 242 kts | 13° |
| 2026-05-05 19:57 | 30.87562 | 121.85801 | 5938 ft | 242 kts | 13° |
| 2026-05-05 19:58 | 30.89178 | 121.86243 | 5933 ft | 242 kts | 13° |
| 2026-05-05 19:58 | 30.90820 | 121.86691 | 5931 ft | 242 kts | 13° |
| 2026-05-05 19:58 | 30.92463 | 121.87139 | 5935 ft | 243 kts | 13° |
| 2026-05-05 19:58 | 30.94030 | 121.87784 | 5938 ft | 238 kts | 27° |
| 2026-05-05 19:59 | 30.95468 | 121.88756 | 5938 ft | 240 kts | 31° |
| 2026-05-05 19:59 | 30.96887 | 121.89777 | 5944 ft | 240 kts | 31° |
| 2026-05-05 19:59 | 30.98311 | 121.90791 | 5940 ft | 240 kts | 31° |
| 2026-05-05 19:59 | 30.99745 | 121.91802 | 5939 ft | 241 kts | 31° |
| 2026-05-05 20:00 | 31.01170 | 121.92792 | 5935 ft | 242 kts | 31° |
| 2026-05-05 20:00 | 31.02624 | 121.93794 | 5940 ft | 243 kts | 30° |
| 2026-05-05 20:00 | 31.04081 | 121.94797 | 5941 ft | 244 kts | 30° |
| 2026-05-05 20:00 | 31.05540 | 121.95799 | 5935 ft | 243 kts | 30° |
| 2026-05-05 20:01 | 31.06993 | 121.96789 | 5918 ft | 240 kts | 27° |
| 2026-05-05 20:01 | 31.08567 | 121.97244 | 5918 ft | 237 kts | 354° |
| 2026-05-05 20:01 | 31.10169 | 121.96762 | 5964 ft | 241 kts | 342° |
| 2026-05-05 20:01 | 31.11781 | 121.96157 | 5964 ft | 244 kts | 342° |
| 2026-05-05 20:02 | 31.13393 | 121.95550 | 5960 ft | 242 kts | 342° |
| 2026-05-05 20:02 | 31.14989 | 121.94948 | 5940 ft | 241 kts | 342° |
| 2026-05-05 20:02 | 31.16562 | 121.94355 | 5918 ft | 240 kts | 342° |
| 2026-05-05 20:02 | 31.18153 | 121.93755 | 5933 ft | 240 kts | 342° |
| 2026-05-05 20:03 | 31.19748 | 121.93156 | 5915 ft | 241 kts | 342° |
| 2026-05-05 20:03 | 31.21350 | 121.92557 | 5914 ft | 241 kts | 342° |
| 2026-05-05 20:03 | 31.22944 | 121.91965 | 5916 ft | 239 kts | 342° |
| 2026-05-05 20:03 | 31.24528 | 121.91372 | 5805 ft | 240 kts | 342° |
| 2026-05-05 20:04 | 31.26114 | 121.90769 | 5518 ft | 239 kts | 342° |
| 2026-05-05 20:04 | 31.27699 | 121.90169 | 5216 ft | 239 kts | 342° |
| 2026-05-05 20:04 | 31.29253 | 121.89579 | 4915 ft | 237 kts | 342° |
| 2026-05-05 20:04 | 31.30827 | 121.88982 | 4569 ft | 239 kts | 342° |
| 2026-05-05 20:05 | 31.32412 | 121.88385 | 4264 ft | 239 kts | 342° |
| 2026-05-05 20:05 | 31.33983 | 121.87787 | 4070 ft | 235 kts | 341° |
| 2026-05-05 20:05 | 31.35534 | 121.87195 | 3953 ft | 235 kts | 341° |
| 2026-05-05 20:05 | 31.37112 | 121.86600 | 3833 ft | 241 kts | 342° |
| 2026-05-05 20:06 | 31.38716 | 121.85996 | 3731 ft | 244 kts | 341° |
| 2026-05-05 20:06 | 31.40334 | 121.85385 | 3596 ft | 245 kts | 341° |
| 2026-05-05 20:06 | 31.41945 | 121.84774 | 3486 ft | 248 kts | 341° |
| 2026-05-05 20:06 | 31.43446 | 121.83872 | 3332 ft | 241 kts | 314° |
| 2026-05-05 20:07 | 31.44297 | 121.82244 | 3241 ft | 235 kts | 282° |
| 2026-05-05 20:07 | 31.44411 | 121.80384 | 3130 ft | 224 kts | 260° |
| 2026-05-05 20:07 | 31.44131 | 121.78636 | 3017 ft | 213 kts | 254° |
| 2026-05-05 20:07 | 31.43809 | 121.76987 | 2896 ft | 202 kts | 253° |
| 2026-05-05 20:08 | 31.43504 | 121.75430 | 2809 ft | 191 kts | 253° |
| 2026-05-05 20:08 | 31.43209 | 121.73920 | 2723 ft | 189 kts | 253° |
| 2026-05-05 20:08 | 31.42742 | 121.72524 | 2616 ft | 183 kts | 224° |
| 2026-05-05 20:08 | 31.41683 | 121.71827 | 2573 ft | 177 kts | 183° |
| 2026-05-05 20:09 | 31.40491 | 121.72032 | 2523 ft | 180 kts | 166° |
| 2026-05-05 20:09 | 31.39245 | 121.72398 | 2449 ft | 186 kts | 166° |
| 2026-05-05 20:09 | 31.38016 | 121.72807 | 2329 ft | 181 kts | 165° |
| 2026-05-05 20:09 | 31.36816 | 121.73243 | 2243 ft | 181 kts | 165° |
| 2026-05-05 20:10 | 31.35623 | 121.73691 | 2189 ft | 179 kts | 164° |
| 2026-05-05 20:10 | 31.34499 | 121.74118 | 2136 ft | 158 kts | 164° |
| 2026-05-05 20:10 | 31.33544 | 121.74482 | 2054 ft | 130 kts | 165° |
| 2026-05-05 20:10 | 31.32689 | 121.74803 | 2039 ft | 134 kts | 165° |
| 2026-05-05 20:11 | 31.31792 | 121.75146 | 2002 ft | 136 kts | 163° |
| 2026-05-05 20:11 | 31.30897 | 121.75486 | 2000 ft | 137 kts | 164° |
| 2026-05-05 20:11 | 31.29988 | 121.75830 | 1998 ft | 138 kts | 164° |
| 2026-05-05 20:11 | 31.29079 | 121.76177 | 2000 ft | 137 kts | 164° |
| 2026-05-05 20:12 | 31.28172 | 121.76520 | 2006 ft | 137 kts | 163° |
| 2026-05-05 20:12 | 31.27265 | 121.76867 | 1999 ft | 135 kts | 163° |
| 2026-05-05 20:12 | 31.26394 | 121.77197 | 1990 ft | 129 kts | 164° |
| 2026-05-05 20:12 | 31.25552 | 121.77517 | 1987 ft | 128 kts | 164° |
| 2026-05-05 20:13 | 31.24690 | 121.77844 | 1850 ft | 132 kts | 165° |
| 2026-05-05 20:13 | 31.23846 | 121.78163 | 1685 ft | 125 kts | 165° |
| 2026-05-05 20:13 | 31.23025 | 121.78479 | 1493 ft | 124 kts | 165° |
| 2026-05-05 20:13 | 31.22190 | 121.78793 | 1352 ft | 127 kts | 164° |
| 2026-05-05 20:14 | 31.21349 | 121.79111 | 1176 ft | 127 kts | 163° |
| 2026-05-05 20:14 | 31.20512 | 121.79430 | 1006 ft | 126 kts | 163° |
| 2026-05-05 20:14 | 31.19670 | 121.79748 | 834 ft | 128 kts | 162° |
| 2026-05-05 20:14 | 31.18803 | 121.80079 | 665 ft | 131 kts | 162° |
| 2026-05-05 20:15 | 31.17938 | 121.80404 | 491 ft | 133 kts | 161° |
| 2026-05-05 20:15 | 31.17053 | 121.80743 | 302 ft | 136 kts | 162° |
| 2026-05-05 20:15 | 31.16146 | 121.81089 | 134 ft | 137 kts | 162° |
| 2026-05-05 20:15 | 31.15244 | 121.81423 | 29 ft | 130 kts | 162° |
| 2026-05-05 20:16 | 31.14513 | 121.81701 | 27 ft | 85 kts | 162° |
| 2026-05-05 20:16 | 31.14128 | 121.81849 | 29 ft | 33 kts | 161° |
| 2026-05-05 20:16 | 31.13916 | 121.81928 | 30 ft | 26 kts | 162° |
| 2026-05-05 20:16 | 31.13736 | 121.81957 | 28 ft | 26 kts | 187° |
| 2026-05-05 20:17 | 31.13607 | 121.81925 | 27 ft | 14 kts | 198° |
| 2026-05-05 20:17 | 31.13556 | 121.81836 | 27 ft | 14 kts | 249° |
| 2026-05-05 20:17 | 31.13525 | 121.81730 | 27 ft | 14 kts | 252° |
| 2026-05-05 20:17 | 31.13495 | 121.81623 | 27 ft | 14 kts | 251° |
| 2026-05-05 20:18 | 31.13525 | 121.81531 | 27 ft | 14 kts | 332° |
| 2026-05-05 20:18 | 31.13613 | 121.81494 | 27 ft | 9 kts | 342° |
| 2026-05-05 20:18 | 31.13624 | 121.81490 | 27 ft | 0 kts | 342° |
| 2026-05-05 20:20 | 31.13630 | 121.81488 | 27 ft | 2 kts | 342° |
| 2026-05-05 20:20 | 31.13647 | 121.81481 | 27 ft | 3 kts | 342° |
| 2026-05-05 20:20 | 31.13675 | 121.81471 | 27 ft | 5 kts | 342° |
| 2026-05-05 20:20 | 31.13719 | 121.81454 | 28 ft | 9 kts | 342° |
| 2026-05-05 20:21 | 31.13795 | 121.81426 | 28 ft | 12 kts | 342° |
| 2026-05-05 20:21 | 31.13820 | 121.81395 | 28 ft | 4 kts | 266° |
| 2026-05-05 20:21 | 31.13811 | 121.81355 | 28 ft | 6 kts | 254° |
| 2026-05-05 20:21 | 31.13802 | 121.81322 | 28 ft | 1 kts | 252° |
| 2026-05-05 20:22 | 31.13801 | 121.81319 | 28 ft | 0 kts | 252° |